createdAt,value
2023-02-16T00:02:10.305Z,0.67
2023-02-16T00:04:37.967Z,0.70
2023-02-16T00:07:05.433Z,0.80
2023-02-16T00:09:32.879Z,0.60
2023-02-16T00:12:17.902Z,0.60
2023-02-16T00:14:46.725Z,0.60
2023-02-16T00:17:14.165Z,0.60
2023-02-16T00:19:42.726Z,0.50
2023-02-16T00:22:11.078Z,0.70
2023-02-16T00:24:38.643Z,0.70
2023-02-16T00:27:13.024Z,0.60
2023-02-16T00:29:40.481Z,0.50
2023-02-16T00:32:13.432Z,0.60
2023-02-16T00:34:41.651Z,0.53
2023-02-16T00:37:10.256Z,0.57
2023-02-16T00:39:38.233Z,0.70
2023-02-16T00:42:07.016Z,0.73
2023-02-16T00:44:36.483Z,0.63
2023-02-16T00:47:05.185Z,0.60
2023-02-16T00:49:33.949Z,0.70
2023-02-16T00:52:01.767Z,0.70
2023-02-16T00:54:30.973Z,0.50
2023-02-16T00:56:59.392Z,0.60
2023-02-16T00:59:26.860Z,0.50
2023-02-16T01:01:54.296Z,0.50
2023-02-16T01:04:24.356Z,0.50
2023-02-16T01:07:10.794Z,0.60
2023-02-16T01:09:55.838Z,0.67
2023-02-16T01:12:23.403Z,0.60
2023-02-16T01:14:53.089Z,0.60
2023-02-16T01:17:23.305Z,0.57
2023-02-16T01:19:54.103Z,0.70
2023-02-16T01:22:22.853Z,0.50
2023-02-16T01:24:50.276Z,0.70
2023-02-16T01:27:18.885Z,0.57
2023-02-16T01:29:46.357Z,0.50
2023-02-16T01:32:15.670Z,0.52
2023-02-16T01:34:43.189Z,0.60
2023-02-16T01:37:15.128Z,0.50
2023-02-16T01:39:45.509Z,0.60
2023-02-16T01:42:17.311Z,0.80
2023-02-16T01:44:47.562Z,0.50
2023-02-16T01:47:20.343Z,0.60
2023-02-16T01:49:47.751Z,0.60
2023-02-16T01:52:19.284Z,0.53
2023-02-16T01:54:51.916Z,0.60
2023-02-16T01:57:28.335Z,0.60
2023-02-16T02:00:05.078Z,0.70
2023-02-16T02:02:42.436Z,0.50
2023-02-16T02:05:34.969Z,0.53
2023-02-16T02:08:05.494Z,0.60
2023-02-16T02:10:38.545Z,0.50
2023-02-16T02:13:08.501Z,0.50
2023-02-16T02:15:37.657Z,0.70
2023-02-16T02:18:06.174Z,0.70
2023-02-16T02:20:58.685Z,0.60
2023-02-16T02:23:40.384Z,0.80
2023-02-16T02:26:31.126Z,0.57
2023-02-16T02:29:04.561Z,0.70
2023-02-16T02:31:37.384Z,0.60
2023-02-16T02:34:10.558Z,0.50
2023-02-16T02:36:40.415Z,0.60
2023-02-16T02:39:18.538Z,0.80
2023-02-16T02:42:04.756Z,0.70
2023-02-16T02:44:41.196Z,0.60
2023-02-16T02:47:08.770Z,0.67
2023-02-16T02:49:36.593Z,0.60
2023-02-16T02:52:04.387Z,0.60
2023-02-16T02:54:50.760Z,0.63
2023-02-16T02:57:39.046Z,0.70
2023-02-16T03:00:26.149Z,0.87
2023-02-16T03:02:58.702Z,0.80
2023-02-16T03:05:28.114Z,0.73
2023-02-16T03:08:06.240Z,0.73
2023-02-16T03:10:53.573Z,0.70
2023-02-16T03:13:23.591Z,0.70
2023-02-16T03:15:55.770Z,0.80
2023-02-16T03:18:42.733Z,0.90
2023-02-16T03:21:28.706Z,0.70
2023-02-16T03:24:14.431Z,0.60
2023-02-16T03:26:59.766Z,0.80
2023-02-16T03:29:29.041Z,0.73
2023-02-16T03:31:57.538Z,0.70
2023-02-16T03:34:25.190Z,0.80
2023-02-16T03:36:58.366Z,0.70
2023-02-16T03:39:26.304Z,0.70
2023-02-16T03:41:55.065Z,0.60
2023-02-16T03:44:22.789Z,0.73
2023-02-16T03:46:51.994Z,0.63
2023-02-16T03:49:19.593Z,0.70
2023-02-16T03:51:47.437Z,0.67
2023-02-16T03:54:15.113Z,0.60
2023-02-16T03:56:42.711Z,0.80
2023-02-16T03:59:10.246Z,0.60
2023-02-16T04:01:37.812Z,0.80
2023-02-16T04:04:06.738Z,0.70
2023-02-16T04:06:34.233Z,0.70
2023-02-16T04:09:01.977Z,0.60
2023-02-16T04:11:47.137Z,0.60
2023-02-16T04:14:14.574Z,0.70
2023-02-16T04:16:42.163Z,0.60
2023-02-16T04:19:11.155Z,0.57
2023-02-16T04:21:38.652Z,0.60
2023-02-16T04:24:06.526Z,0.70
2023-02-16T04:26:34.311Z,0.60
2023-02-16T04:29:01.838Z,0.60
2023-02-16T04:31:29.367Z,0.73
2023-02-16T04:33:56.832Z,0.53
2023-02-16T04:36:25.609Z,0.67
2023-02-16T04:38:53.030Z,0.50
2023-02-16T04:41:20.430Z,0.70
2023-02-16T04:43:47.838Z,0.60
2023-02-16T04:46:15.269Z,0.50
2023-02-16T04:48:42.714Z,0.60
2023-02-16T04:51:10.114Z,0.57
2023-02-16T04:53:38.918Z,0.50
2023-02-16T04:56:06.454Z,0.60
2023-02-16T04:58:33.911Z,0.60
2023-02-16T05:01:01.471Z,0.53
2023-02-16T05:03:28.976Z,0.73
2023-02-16T05:05:56.407Z,0.60
2023-02-16T05:08:24.131Z,0.80
2023-02-16T05:11:06.839Z,0.50
2023-02-16T05:14:17.357Z,0.60
2023-02-16T05:20:42.891Z,0.60
2023-02-16T05:26:51.382Z,0.50
2023-02-16T05:29:18.992Z,0.60
2023-02-16T05:31:46.542Z,0.40
2023-02-16T05:34:14.272Z,0.50
2023-02-16T05:36:41.720Z,0.50
2023-02-16T05:39:09.151Z,0.60
2023-02-16T05:41:36.732Z,0.60
2023-02-16T05:44:05.808Z,0.50
2023-02-16T05:46:34.066Z,0.50
2023-02-16T05:49:02.119Z,0.50
2023-02-16T05:51:29.749Z,0.50
2023-02-16T05:53:57.337Z,0.50
2023-02-16T05:56:25.077Z,0.50
2023-02-16T05:58:53.676Z,0.50
2023-02-16T06:01:23.057Z,0.52
2023-02-16T06:03:50.539Z,0.60
2023-02-16T06:06:18.170Z,0.40
2023-02-16T06:08:45.761Z,0.40
2023-02-16T06:11:27.600Z,0.65
2023-02-16T06:13:57.965Z,0.47
2023-02-16T06:16:27.666Z,0.63
2023-02-16T06:18:55.276Z,0.40
2023-02-16T06:21:22.886Z,0.40
2023-02-16T06:23:50.644Z,0.50
2023-02-16T06:26:18.076Z,0.50
2023-02-16T06:28:45.640Z,0.50
2023-02-16T06:31:13.323Z,0.40
2023-02-16T06:33:43.271Z,0.50
2023-02-16T06:36:11.104Z,0.40
2023-02-16T06:38:38.548Z,0.40
2023-02-16T06:41:06.401Z,0.40
2023-02-16T06:43:34.014Z,0.40
2023-02-16T06:46:02.231Z,0.50
2023-02-16T06:48:29.707Z,0.40
2023-02-16T06:50:58.496Z,0.40
2023-02-16T06:53:26.140Z,0.35
2023-02-16T06:55:53.549Z,0.30
2023-02-16T06:58:20.979Z,0.40
2023-02-16T07:00:48.589Z,0.40
2023-02-16T07:03:16.056Z,0.38
2023-02-16T07:05:44.035Z,0.40
2023-02-16T07:08:15.384Z,0.30
2023-02-16T07:10:49.804Z,0.30
2023-02-16T07:13:18.304Z,0.40
2023-02-16T07:15:45.738Z,0.30
2023-02-16T07:18:13.461Z,0.32
2023-02-16T07:20:40.915Z,0.30
2023-02-16T07:23:08.322Z,0.20
2023-02-16T07:25:37.321Z,0.20
2023-02-16T07:28:04.963Z,0.20
2023-02-16T07:30:32.447Z,0.20
2023-02-16T07:32:59.930Z,0.20
2023-02-16T07:35:28.494Z,0.20
2023-02-16T07:37:55.946Z,0.10
2023-02-16T07:40:23.381Z,0.10
2023-02-16T07:42:52.273Z,0.10
2023-02-16T07:45:19.810Z,0.17
2023-02-16T07:47:47.249Z,0.10
2023-02-16T07:50:14.700Z,0.10
2023-02-16T07:52:42.126Z,0.10
2023-02-16T07:55:09.577Z,0.10
2023-02-16T07:57:38.729Z,0.10
2023-02-16T08:00:08.706Z,0.10
2023-02-16T08:02:41.970Z,0.10
2023-02-16T08:05:09.491Z,0.10
2023-02-16T08:07:36.970Z,0.10
2023-02-16T08:10:05.796Z,0.10
2023-02-16T08:12:33.573Z,0.10
2023-02-16T08:15:01.034Z,0.10
2023-02-16T08:17:29.886Z,0.10
2023-02-16T08:19:57.339Z,0.10
2023-02-16T08:22:24.875Z,0.10
2023-02-16T08:24:53.895Z,0.10
2023-02-16T08:27:21.381Z,0.20
2023-02-16T08:29:48.847Z,0.10
2023-02-16T08:32:16.470Z,0.10
2023-02-16T08:34:45.497Z,0.10
2023-02-16T08:37:13.648Z,0.10
2023-02-16T08:39:41.560Z,0.10
2023-02-16T08:42:11.933Z,0.10
2023-02-16T08:44:40.303Z,0.10
2023-02-16T08:47:09.349Z,0.20
2023-02-16T08:49:38.223Z,0.10
2023-02-16T08:52:07.199Z,0.10
2023-02-16T08:54:34.658Z,0.10
2023-02-16T08:57:03.875Z,0.10
2023-02-16T08:59:32.852Z,0.20
2023-02-16T09:02:00.695Z,0.20
2023-02-16T09:04:29.274Z,0.10
2023-02-16T09:06:57.933Z,0.10
2023-02-16T09:09:27.268Z,0.10
2023-02-16T09:12:19.243Z,0.10
2023-02-16T09:14:46.714Z,0.10
2023-02-16T09:17:14.233Z,0.10
2023-02-16T09:19:43.570Z,0.10
2023-02-16T09:22:10.981Z,0.10
2023-02-16T09:24:39.940Z,0.10
2023-02-16T09:27:07.546Z,0.10
2023-02-16T09:29:35.455Z,0.10
2023-02-16T09:32:03.447Z,0.10
2023-02-16T09:34:30.999Z,0.15
2023-02-16T09:37:24.105Z,0.20
2023-02-16T09:39:52.926Z,0.20
2023-02-16T09:42:24.463Z,0.22
2023-02-16T09:44:54.780Z,0.20
2023-02-16T09:47:25.430Z,0.30
2023-02-16T09:49:56.242Z,0.20
2023-02-16T09:52:27.418Z,0.20
2023-02-16T09:54:58.215Z,0.30
2023-02-16T09:57:36.188Z,0.30
2023-02-16T10:00:08.597Z,0.30
2023-02-16T10:02:41.947Z,0.20
2023-02-16T10:05:21.389Z,0.30
2023-02-16T10:07:55.964Z,0.30
2023-02-16T10:10:26.271Z,0.28
2023-02-16T10:12:55.766Z,0.30
2023-02-16T10:15:26.001Z,0.30
2023-02-16T10:17:56.538Z,0.25
2023-02-16T10:20:26.557Z,0.25
2023-02-16T10:22:56.135Z,0.30
2023-02-16T10:25:26.638Z,0.20
2023-02-16T10:27:58.878Z,0.25
2023-02-16T10:30:28.518Z,0.32
2023-02-16T10:32:57.173Z,0.30
2023-02-16T10:35:29.940Z,0.30
2023-02-16T10:38:03.360Z,0.28
2023-02-16T10:40:35.629Z,0.20
2023-02-16T10:43:07.022Z,0.25
2023-02-16T10:45:36.822Z,0.20
2023-02-16T10:48:04.649Z,0.20
2023-02-16T10:50:33.006Z,0.20
2023-02-16T10:53:02.104Z,0.30
2023-02-16T10:55:29.566Z,0.20
2023-02-16T10:57:59.647Z,0.20
2023-02-16T11:00:30.319Z,0.30
2023-02-16T11:02:58.204Z,0.20
2023-02-16T11:05:30.061Z,0.30
2023-02-16T11:08:01.368Z,0.30
2023-02-16T11:10:37.062Z,0.20
2023-02-16T11:13:06.684Z,0.25
2023-02-16T11:15:40.702Z,0.30
2023-02-16T11:18:20.081Z,0.20
2023-02-16T11:20:53.025Z,0.25
2023-02-16T11:23:24.311Z,0.20
2023-02-16T11:25:55.514Z,0.38
2023-02-16T11:28:27.955Z,0.20
2023-02-16T11:31:00.804Z,0.20
2023-02-16T11:33:29.376Z,0.20
2023-02-16T11:35:56.884Z,0.20
2023-02-16T11:38:28.419Z,0.30
2023-02-16T11:40:56.146Z,0.28
2023-02-16T11:43:26.897Z,0.20
2023-02-16T11:46:00.073Z,0.20
2023-02-16T11:48:29.946Z,0.20
2023-02-16T11:50:58.449Z,0.30
2023-02-16T11:53:27.056Z,0.20
2023-02-16T11:56:10.624Z,0.30
2023-02-16T11:58:38.196Z,0.30
2023-02-16T12:01:14.345Z,0.30
2023-02-16T12:03:59.682Z,0.30
2023-02-16T12:06:33.571Z,0.20
2023-02-16T12:09:07.823Z,0.20
2023-02-16T12:11:39.275Z,0.22
2023-02-16T12:14:15.776Z,0.28
2023-02-16T12:16:47.455Z,0.25
2023-02-16T12:19:24.149Z,0.30
2023-02-16T12:21:53.128Z,0.22
2023-02-16T12:24:29.733Z,0.20
2023-02-16T12:26:58.610Z,0.20
2023-02-16T12:29:34.797Z,0.22
2023-02-16T12:32:07.733Z,0.30
2023-02-16T12:34:43.208Z,0.20
2023-02-16T12:37:13.817Z,0.20
2023-02-16T12:39:45.743Z,0.28
2023-02-16T12:42:20.908Z,0.30
2023-02-16T12:44:50.056Z,0.20
2023-02-16T12:47:22.064Z,0.20
2023-02-16T12:49:53.199Z,0.28
2023-02-16T12:52:25.351Z,0.20
2023-02-16T12:54:55.383Z,0.20
2023-02-16T12:57:25.384Z,0.20
2023-02-16T12:59:55.572Z,0.30
2023-02-16T13:02:27.686Z,0.20
2023-02-16T13:04:59.577Z,0.20
2023-02-16T13:07:30.345Z,0.30
2023-02-16T13:09:59.787Z,0.30
2023-02-16T13:12:31.236Z,0.20
2023-02-16T13:15:03.169Z,0.20
2023-02-16T13:17:34.525Z,0.20
2023-02-16T13:20:03.606Z,0.22
2023-02-16T13:22:44.400Z,0.28
2023-02-16T13:25:29.991Z,0.20
2023-02-16T13:28:03.251Z,0.20
2023-02-16T13:30:41.764Z,0.28
2023-02-16T13:33:16.930Z,0.17
2023-02-16T13:35:58.504Z,0.22
2023-02-16T13:38:37.118Z,0.20
2023-02-16T13:41:21.872Z,0.20
2023-02-16T13:43:51.659Z,0.20
2023-02-16T13:46:24.702Z,0.20
2023-02-16T13:48:53.955Z,0.20
2023-02-16T13:51:22.764Z,0.30
2023-02-16T13:53:55.566Z,0.30
2023-02-16T13:56:32.013Z,0.30
2023-02-16T13:59:00.801Z,0.20
2023-02-16T14:01:38.637Z,0.25
2023-02-16T14:04:12.669Z,0.20
2023-02-16T14:06:41.426Z,0.20
2023-02-16T14:09:27.416Z,0.20
2023-02-16T14:12:02.107Z,0.20
2023-02-16T14:14:31.161Z,0.30
2023-02-16T14:17:15.911Z,0.20
2023-02-16T14:19:52.432Z,0.20
2023-02-16T14:22:21.718Z,0.30
2023-02-16T14:24:53.579Z,0.20
2023-02-16T14:27:36.208Z,0.20
2023-02-16T14:30:04.334Z,0.20
2023-02-16T14:32:33.869Z,0.20
2023-02-16T14:35:08.096Z,0.20
2023-02-16T14:37:37.470Z,0.20
2023-02-16T14:40:08.654Z,0.20
2023-02-16T14:42:36.811Z,0.30
2023-02-16T14:45:19.690Z,0.20
2023-02-16T14:47:55.224Z,0.20
2023-02-16T14:50:32.756Z,0.30
2023-02-16T14:53:20.902Z,0.20
2023-02-16T14:58:55.787Z,0.25
2023-02-16T15:01:23.933Z,0.30
2023-02-16T15:03:52.064Z,0.20
2023-02-16T15:06:23.493Z,0.20
2023-02-16T15:08:56.961Z,0.20
2023-02-16T15:11:28.276Z,0.10
2023-02-16T15:14:03.439Z,0.30
2023-02-16T15:16:32.647Z,0.25
2023-02-16T15:19:03.809Z,0.30
2023-02-16T15:21:32.574Z,0.20
2023-02-16T15:24:02.150Z,0.20
2023-02-16T15:26:31.045Z,0.20
2023-02-16T15:28:59.173Z,0.20
2023-02-16T15:31:30.853Z,0.20
2023-02-16T15:33:59.631Z,0.20
2023-02-16T15:36:35.268Z,0.20
2023-02-16T15:39:03.796Z,0.30
2023-02-16T15:41:32.213Z,0.30
2023-02-16T15:43:59.979Z,0.20
2023-02-16T15:46:29.413Z,0.30
2023-02-16T15:48:56.997Z,0.22
2023-02-16T15:51:27.483Z,0.30
2023-02-16T15:53:57.876Z,0.20
2023-02-16T15:56:31.114Z,0.30
2023-02-16T15:58:59.540Z,0.30
2023-02-16T16:01:32.809Z,0.20
2023-02-16T16:04:04.273Z,0.30
2023-02-16T16:06:35.990Z,0.43
2023-02-16T16:09:08.312Z,0.30
2023-02-16T16:11:36.706Z,0.30
2023-02-16T16:14:06.003Z,0.30
2023-02-16T16:16:34.321Z,0.22
2023-02-16T16:19:07.979Z,0.40
2023-02-16T16:21:39.085Z,0.40
2023-02-16T16:24:09.305Z,0.30
2023-02-16T16:26:50.359Z,0.30
2023-02-16T16:29:31.725Z,0.40
2023-02-16T16:31:59.369Z,0.40
2023-02-16T16:34:34.141Z,0.40
2023-02-16T16:37:03.759Z,0.40
2023-02-16T16:39:34.382Z,0.40
2023-02-16T16:42:09.806Z,0.35
2023-02-16T16:44:38.464Z,0.40
2023-02-16T16:47:13.340Z,0.30
2023-02-16T16:49:46.486Z,0.30
2023-02-16T16:52:13.977Z,0.40
2023-02-16T16:54:42.782Z,0.40
2023-02-16T16:57:16.379Z,0.40
2023-02-16T16:59:43.802Z,0.30
2023-02-16T17:02:11.514Z,0.30
2023-02-16T17:04:39.137Z,0.40
2023-02-16T17:07:06.934Z,0.40
2023-02-16T17:09:34.392Z,0.40
2023-02-16T17:12:03.362Z,0.40
2023-02-16T17:14:31.089Z,0.30
2023-02-16T17:16:59.232Z,0.30
2023-02-16T17:19:29.292Z,0.40
2023-02-16T17:21:56.757Z,0.35
2023-02-16T17:24:24.451Z,0.35
2023-02-16T17:26:52.012Z,0.30
2023-02-16T17:29:20.829Z,0.40
2023-02-16T17:31:49.733Z,0.40
2023-02-16T17:34:18.069Z,0.50
2023-02-16T17:36:48.867Z,0.30
2023-02-16T17:39:16.311Z,0.40
2023-02-16T17:41:43.767Z,0.40
2023-02-16T17:44:11.300Z,0.40
2023-02-16T17:46:40.153Z,0.30
2023-02-16T17:49:07.778Z,0.50
2023-02-16T17:51:36.461Z,0.47
2023-02-16T17:54:06.448Z,0.40
2023-02-16T17:56:34.040Z,0.32
2023-02-16T17:59:01.735Z,0.40
2023-02-16T18:01:29.206Z,0.40
2023-02-16T18:03:57.978Z,0.50
2023-02-16T18:06:28.108Z,0.40
2023-02-16T18:08:56.309Z,0.40
2023-02-16T18:11:23.816Z,0.40
2023-02-16T18:13:51.371Z,0.40
2023-02-16T18:16:21.596Z,0.40
2023-02-16T18:18:49.197Z,0.30
2023-02-16T18:21:17.962Z,0.43
2023-02-16T18:23:45.463Z,0.50
2023-02-16T18:26:13.976Z,0.30
2023-02-16T18:28:41.626Z,0.40
2023-02-16T18:31:09.275Z,0.30
2023-02-16T18:33:36.836Z,0.43
2023-02-16T18:36:05.029Z,0.30
2023-02-16T18:38:34.038Z,0.50
2023-02-16T18:41:02.333Z,0.30
2023-02-16T18:43:29.828Z,0.40
2023-02-16T18:45:57.346Z,0.40
2023-02-16T18:48:24.847Z,0.30
2023-02-16T18:50:52.363Z,0.40
2023-02-16T18:53:19.845Z,0.30
2023-02-16T18:55:48.687Z,0.35
2023-02-16T18:58:16.144Z,0.40
2023-02-16T19:00:44.007Z,0.40
2023-02-16T19:03:11.496Z,0.30
2023-02-16T19:05:38.968Z,0.40
2023-02-16T19:08:06.686Z,0.38
2023-02-16T19:10:34.428Z,0.30
2023-02-16T19:13:05.029Z,0.40
2023-02-16T19:15:33.200Z,0.40
2023-02-16T19:18:00.721Z,0.32
2023-02-16T19:20:29.630Z,0.40
2023-02-16T19:22:57.869Z,0.30
2023-02-16T19:25:26.700Z,0.30
2023-02-16T19:27:54.351Z,0.40
2023-02-16T19:30:24.193Z,0.38
2023-02-16T19:32:51.752Z,0.40
2023-02-16T19:35:19.418Z,0.35
2023-02-16T19:37:47.496Z,0.30
2023-02-16T19:40:15.615Z,0.40
2023-02-16T19:42:43.137Z,0.47
2023-02-16T19:45:10.698Z,0.45
2023-02-16T19:47:39.487Z,0.40
2023-02-16T19:50:07.582Z,0.30
2023-02-16T19:52:35.070Z,0.32
2023-02-16T19:55:03.443Z,0.30
2023-02-16T19:57:30.944Z,0.30
2023-02-16T19:59:58.355Z,0.30
2023-02-16T20:02:25.906Z,0.50
2023-02-16T20:04:54.827Z,0.40
2023-02-16T20:07:22.335Z,0.38
2023-02-16T20:09:49.994Z,0.40
2023-02-16T20:12:17.424Z,0.40
2023-02-16T20:14:44.977Z,0.30
2023-02-16T20:17:12.450Z,0.32
2023-02-16T20:19:39.874Z,0.30
2023-02-16T20:22:08.896Z,0.30
2023-02-16T20:24:36.447Z,0.40
2023-02-16T20:27:04.458Z,0.40
2023-02-16T20:29:32.349Z,0.35
2023-02-16T20:31:59.851Z,0.40
2023-02-16T20:34:27.873Z,0.43
2023-02-16T20:36:55.457Z,0.30
2023-02-16T20:39:24.324Z,0.30
2023-02-16T20:41:52.021Z,0.50
2023-02-16T20:44:19.786Z,0.35
2023-02-16T20:46:47.335Z,0.30
2023-02-16T20:49:20.392Z,0.40
2023-02-16T20:51:47.862Z,0.30
2023-02-16T20:54:15.373Z,0.50
2023-02-16T20:56:44.171Z,0.32
2023-02-16T20:59:12.146Z,0.40
2023-02-16T21:01:40.625Z,0.40
2023-02-16T21:04:08.725Z,0.40
2023-02-16T21:06:36.732Z,0.30
2023-02-16T21:09:04.737Z,0.30
2023-02-16T21:11:32.732Z,0.40
2023-02-16T21:14:02.324Z,0.30
2023-02-16T21:16:29.912Z,0.30
2023-02-16T21:18:57.687Z,0.40
2023-02-16T21:21:25.434Z,0.40
2023-02-16T21:23:53.810Z,0.40
2023-02-16T21:26:22.394Z,0.30
2023-02-16T21:28:50.191Z,0.40
2023-02-16T21:31:20.196Z,0.40
2023-02-16T21:33:48.147Z,0.30
2023-02-16T21:36:16.687Z,0.38
2023-02-16T21:38:44.513Z,0.25
2023-02-16T21:41:24.943Z,0.40
2023-02-16T21:43:57.376Z,0.32
2023-02-16T21:46:26.309Z,0.38
2023-02-16T21:48:52.814Z,0.30
2023-02-16T21:51:21.977Z,0.40
2023-02-16T21:53:49.523Z,0.40
2023-02-16T21:56:23.070Z,0.40
2023-02-16T21:58:50.697Z,0.40
2023-02-16T22:01:20.895Z,0.30
2023-02-16T22:03:50.209Z,0.30
2023-02-16T22:06:17.668Z,0.30
2023-02-16T22:08:45.090Z,0.40
2023-02-16T22:11:14.113Z,0.40
2023-02-16T22:13:41.633Z,0.40
2023-02-16T22:16:10.116Z,0.38
2023-02-16T22:18:37.951Z,0.32
2023-02-16T22:21:07.351Z,0.28
2023-02-16T22:23:34.878Z,0.38
2023-02-16T22:26:02.528Z,0.50
2023-02-16T22:28:30.275Z,0.35
2023-02-16T22:30:57.691Z,0.40
2023-02-16T22:33:25.147Z,0.30
2023-02-16T22:35:52.587Z,0.40
2023-02-16T22:38:21.362Z,0.40
2023-02-16T22:40:48.791Z,0.38
2023-02-16T22:43:16.212Z,0.40
2023-02-16T22:45:43.647Z,0.40
2023-02-16T22:48:11.094Z,0.35
2023-02-16T22:50:38.551Z,0.45
2023-02-16T22:53:06.079Z,0.30
2023-02-16T22:55:34.853Z,0.30
2023-02-16T22:58:02.276Z,0.40
2023-02-16T23:00:54.459Z,0.40
2023-02-16T23:03:23.050Z,0.30
2023-02-16T23:05:50.670Z,0.50
2023-02-16T23:08:18.217Z,0.38
2023-02-16T23:10:59.837Z,0.40
2023-02-16T23:13:28.328Z,0.30
2023-02-16T23:15:56.366Z,0.30
2023-02-16T23:18:24.157Z,0.25
2023-02-16T23:20:51.653Z,0.40
2023-02-16T23:23:19.088Z,0.30
2023-02-16T23:25:48.424Z,0.30
2023-02-16T23:28:16.614Z,0.40
2023-02-16T23:30:44.660Z,0.30
2023-02-16T23:33:12.232Z,0.32
2023-02-16T23:35:39.778Z,0.32
2023-02-16T23:38:07.414Z,0.30
2023-02-16T23:40:35.036Z,0.30
2023-02-16T23:43:03.837Z,0.40
2023-02-16T23:45:31.294Z,0.40
2023-02-16T23:47:58.720Z,0.40
2023-02-16T23:50:26.136Z,0.30
2023-02-16T23:52:53.658Z,0.43
2023-02-16T23:55:21.219Z,0.30
2023-02-16T23:57:48.692Z,0.30
